createdAt,value
2023-05-01T00:01:38.410Z,43.33
2023-05-01T00:04:05.139Z,40.78
2023-05-01T00:06:31.788Z,40.18
2023-05-01T00:08:58.368Z,39.83
2023-05-01T00:11:24.992Z,41.55
2023-05-01T00:13:51.482Z,41.14
2023-05-01T00:16:18.077Z,41.55
2023-05-01T00:18:47.376Z,40.44
2023-05-01T00:21:13.924Z,41.00
2023-05-01T00:23:40.434Z,41.44
2023-05-01T00:26:06.876Z,41.06
2023-05-01T00:28:33.396Z,39.26
2023-05-01T00:30:59.957Z,39.71
2023-05-01T00:33:26.623Z,40.52
2023-05-01T00:35:53.139Z,41.64
2023-05-01T00:38:19.670Z,37.13
2023-05-01T00:40:46.178Z,40.03
2023-05-01T00:43:12.755Z,42.43
2023-05-01T00:45:39.294Z,41.56
2023-05-01T00:48:05.879Z,38.81
2023-05-01T00:50:35.270Z,38.94
2023-05-01T00:53:01.829Z,39.14
2023-05-01T00:55:28.332Z,37.72
2023-05-01T00:57:54.863Z,38.30
2023-05-01T01:00:21.458Z,41.32
2023-05-01T01:02:47.973Z,39.78
2023-05-01T01:05:14.463Z,41.72
2023-05-01T01:07:43.979Z,41.91
2023-05-01T01:10:10.485Z,40.45
2023-05-01T01:12:37.030Z,39.80
2023-05-01T01:15:03.709Z,39.75
2023-05-01T01:17:30.288Z,41.73
2023-05-01T01:19:57.010Z,40.17
2023-05-01T01:22:23.699Z,39.64
2023-05-01T01:24:50.174Z,40.01
2023-05-01T01:27:16.663Z,39.96
2023-05-01T01:29:43.196Z,38.89
2023-05-01T01:32:09.809Z,39.52
2023-05-01T01:34:36.326Z,39.22
2023-05-01T01:37:02.898Z,38.65
2023-05-01T01:39:29.421Z,37.77
2023-05-01T01:41:55.964Z,37.99
2023-05-01T01:44:22.470Z,37.84
2023-05-01T01:46:49.064Z,40.10
2023-05-01T01:49:15.662Z,37.49
2023-05-01T01:51:42.263Z,37.97
2023-05-01T01:54:08.825Z,38.92
2023-05-01T01:56:35.350Z,38.05
2023-05-01T01:59:01.818Z,38.50
2023-05-01T02:01:28.464Z,37.69
2023-05-01T02:03:55.182Z,38.23
2023-05-01T02:06:21.763Z,39.07
2023-05-01T02:08:48.336Z,37.49
2023-05-01T02:11:14.852Z,37.11
2023-05-01T02:13:41.414Z,40.38
2023-05-01T02:16:07.964Z,38.29
2023-05-01T02:18:34.580Z,37.98
2023-05-01T02:21:01.119Z,35.47
2023-05-01T02:23:27.614Z,38.19
2023-05-01T02:25:54.076Z,37.77
2023-05-01T02:28:20.554Z,35.87
2023-05-01T02:30:47.113Z,35.75
2023-05-01T02:33:13.700Z,37.99
2023-05-01T02:35:40.143Z,37.90
2023-05-01T02:38:06.644Z,37.90
2023-05-01T02:40:33.200Z,38.44
2023-05-01T02:42:59.674Z,38.77
2023-05-01T02:45:26.229Z,37.37
2023-05-01T02:47:52.960Z,36.58
2023-05-01T02:50:19.592Z,37.20
2023-05-01T02:52:46.084Z,37.63
2023-05-01T02:55:12.553Z,36.67
2023-05-01T02:57:39.043Z,36.01
2023-05-01T03:00:05.587Z,36.01
2023-05-01T03:02:32.100Z,34.18
2023-05-01T03:04:58.690Z,36.08
2023-05-01T03:07:25.453Z,36.28
2023-05-01T03:09:51.943Z,36.74
2023-05-01T03:12:18.620Z,36.24
2023-05-01T03:14:45.137Z,38.30
2023-05-01T03:17:11.619Z,34.89
2023-05-01T03:19:38.196Z,34.98
2023-05-01T03:22:04.661Z,36.76
2023-05-01T03:24:31.194Z,36.19
2023-05-01T03:26:57.752Z,35.52
2023-05-01T03:29:24.263Z,35.97
2023-05-01T03:31:50.753Z,37.51
2023-05-01T03:34:17.374Z,36.99
2023-05-01T03:36:43.885Z,34.62
2023-05-01T03:39:10.392Z,36.80
2023-05-01T03:41:37.023Z,35.89
2023-05-01T03:44:03.560Z,35.40
2023-05-01T03:46:30.182Z,36.58
2023-05-01T03:48:56.780Z,36.44
2023-05-01T03:51:23.397Z,34.83
2023-05-01T03:53:49.887Z,33.62
2023-05-01T03:56:16.391Z,34.87
2023-05-01T03:58:42.984Z,32.48
2023-05-01T04:01:09.537Z,37.34
2023-05-01T04:03:36.123Z,36.29
2023-05-01T04:06:02.818Z,34.83
2023-05-01T04:08:29.354Z,34.96
2023-05-01T04:10:55.835Z,35.49
2023-05-01T04:13:22.400Z,36.04
2023-05-01T04:15:49.088Z,35.02
2023-05-01T04:18:15.648Z,35.60
2023-05-01T04:20:42.184Z,37.25
2023-05-01T04:23:08.716Z,34.26
2023-05-01T04:25:35.263Z,34.41
2023-05-01T04:28:01.906Z,35.83
2023-05-01T04:30:28.438Z,36.14
2023-05-01T04:32:55.060Z,35.88
2023-05-01T04:35:21.616Z,37.52
2023-05-01T04:37:48.153Z,36.94
2023-05-01T04:40:14.722Z,38.30
2023-05-01T04:42:41.302Z,35.70
2023-05-01T04:45:07.808Z,34.87
2023-05-01T04:47:34.417Z,34.03
2023-05-01T04:50:01.017Z,33.28
2023-05-01T04:52:27.539Z,36.18
2023-05-01T04:54:54.050Z,33.90
2023-05-01T04:57:20.669Z,34.42
2023-05-01T04:59:47.207Z,34.69
2023-05-01T05:02:13.788Z,34.06
2023-05-01T05:04:40.319Z,31.70
2023-05-01T05:07:06.803Z,32.81
2023-05-01T05:09:33.401Z,33.99
2023-05-01T05:11:59.938Z,34.64
2023-05-01T05:14:26.564Z,34.77
2023-05-01T05:16:53.235Z,32.87
2023-05-01T05:19:19.714Z,33.08
2023-05-01T05:21:46.249Z,31.51
2023-05-01T05:24:12.712Z,32.81
2023-05-01T05:26:39.320Z,34.36
2023-05-01T05:29:05.787Z,33.94
2023-05-01T05:31:32.305Z,33.12
2023-05-01T05:33:58.854Z,33.24
2023-05-01T05:36:25.454Z,31.10
2023-05-01T05:38:51.910Z,33.04
2023-05-01T05:41:18.367Z,32.46
2023-05-01T05:43:44.854Z,32.12
2023-05-01T05:46:11.377Z,32.51
2023-05-01T05:48:37.857Z,33.37
2023-05-01T05:51:04.332Z,33.45
2023-05-01T05:53:30.833Z,33.72
2023-05-01T05:55:57.440Z,33.69
2023-05-01T05:58:23.973Z,33.05
2023-05-01T06:00:50.474Z,34.32
2023-05-01T06:03:16.992Z,32.84
2023-05-01T06:05:43.704Z,34.79
2023-05-01T06:08:10.199Z,33.20
2023-05-01T06:10:36.717Z,33.05
2023-05-01T06:13:10.805Z,33.05
2023-05-01T06:15:40.988Z,31.58
2023-05-01T06:18:07.831Z,32.28
2023-05-01T06:20:34.483Z,29.71
2023-05-01T06:23:01.124Z,30.51
2023-05-01T06:25:27.723Z,30.91
2023-05-01T06:27:54.256Z,29.87
2023-05-01T06:30:21.134Z,28.09
2023-05-01T06:32:47.730Z,30.56
2023-05-01T06:35:14.241Z,29.72
2023-05-01T06:37:40.844Z,29.19
2023-05-01T06:40:07.345Z,28.10
2023-05-01T06:42:36.586Z,24.14
2023-05-01T06:45:03.062Z,25.71
2023-05-01T06:47:32.766Z,26.17
2023-05-01T06:49:59.456Z,26.52
2023-05-01T06:52:26.057Z,25.66
2023-05-01T06:54:52.569Z,26.04
2023-05-01T06:57:19.101Z,27.12
2023-05-01T06:59:45.693Z,27.26
2023-05-01T07:02:12.235Z,27.66
2023-05-01T07:04:38.767Z,26.46
2023-05-01T07:07:05.424Z,26.78
2023-05-01T07:09:31.978Z,30.95
2023-05-01T07:11:58.540Z,32.07
2023-05-01T07:14:24.990Z,31.03
2023-05-01T07:16:51.474Z,30.52
2023-05-01T07:19:18.009Z,31.02
2023-05-01T07:21:44.523Z,30.52
2023-05-01T07:24:10.994Z,31.68
2023-05-01T07:26:37.411Z,29.42
2023-05-01T07:29:03.870Z,31.88
2023-05-01T07:31:30.388Z,32.27
2023-05-01T07:33:56.906Z,30.23
2023-05-01T07:36:23.378Z,32.91
2023-05-01T07:38:49.813Z,30.69
2023-05-01T07:41:16.389Z,32.54
2023-05-01T07:43:42.884Z,35.62
2023-05-01T07:46:09.724Z,35.45
2023-05-01T07:48:38.170Z,35.48
2023-05-01T07:51:05.311Z,32.78
2023-05-01T07:53:32.900Z,33.91
2023-05-01T07:55:59.364Z,32.34
2023-05-01T07:58:25.792Z,32.73
2023-05-01T08:00:52.320Z,32.44
2023-05-01T08:03:19.003Z,32.62
2023-05-01T08:05:45.847Z,31.88
2023-05-01T08:08:12.312Z,32.66
2023-05-01T08:10:38.725Z,32.73
2023-05-01T08:13:05.289Z,33.48
2023-05-01T08:15:31.715Z,32.24
2023-05-01T08:17:58.198Z,31.41
2023-05-01T08:20:24.685Z,32.50
2023-05-01T08:22:51.188Z,32.25
2023-05-01T08:25:17.732Z,34.38
2023-05-01T08:27:44.291Z,32.07
2023-05-01T08:30:10.797Z,34.59
2023-05-01T08:32:40.598Z,32.66
2023-05-01T08:35:07.132Z,33.58
2023-05-01T08:37:33.671Z,33.09
2023-05-01T08:40:00.185Z,31.78
2023-05-01T08:42:26.676Z,33.13
2023-05-01T08:44:53.190Z,33.53
2023-05-01T08:47:19.798Z,35.10
2023-05-01T08:49:46.411Z,31.43
2023-05-01T08:52:12.950Z,30.75
2023-05-01T08:54:39.474Z,31.84
2023-05-01T08:57:06.017Z,32.87
2023-05-01T08:59:32.541Z,31.44
2023-05-01T09:01:58.996Z,31.54
2023-05-01T09:04:25.590Z,30.05
2023-05-01T09:06:52.282Z,31.00
2023-05-01T09:09:18.899Z,31.81
2023-05-01T09:11:45.330Z,29.21
2023-05-01T09:14:11.757Z,29.41
2023-05-01T09:16:38.252Z,30.15
2023-05-01T09:19:05.022Z,31.43
2023-05-01T09:21:31.558Z,32.13
2023-05-01T09:23:58.129Z,32.28
2023-05-01T09:26:24.612Z,29.37
2023-05-01T09:28:51.131Z,30.06
2023-05-01T09:31:17.600Z,30.13
2023-05-01T09:33:44.037Z,30.88
2023-05-01T09:36:10.551Z,30.05
2023-05-01T09:38:37.558Z,30.19
2023-05-01T09:41:04.133Z,29.99
2023-05-01T09:43:30.671Z,30.05
2023-05-01T09:45:57.220Z,29.52
2023-05-01T09:48:23.740Z,29.07
2023-05-01T09:50:50.257Z,28.34
2023-05-01T09:53:16.699Z,29.83
2023-05-01T09:55:43.227Z,28.92
2023-05-01T09:58:09.745Z,27.54
2023-05-01T10:00:36.305Z,27.20
2023-05-01T10:03:02.945Z,26.84
2023-05-01T10:05:29.535Z,28.69
2023-05-01T10:07:56.013Z,28.92
2023-05-01T10:10:22.562Z,33.56
2023-05-01T10:12:49.097Z,67.26
2023-05-01T10:15:24.466Z,98.80
2023-05-01T10:17:52.468Z,121.55
2023-05-01T10:20:19.002Z,150.24
2023-05-01T10:22:45.482Z,156.40
2023-05-01T10:25:11.989Z,159.61
2023-05-01T10:27:38.445Z,155.05
2023-05-01T10:30:04.918Z,187.24
2023-05-01T10:32:31.434Z,193.90
2023-05-01T10:34:58.206Z,182.94
2023-05-01T10:37:24.931Z,178.15
2023-05-01T10:39:51.384Z,165.23
2023-05-01T10:42:18.042Z,157.19
2023-05-01T10:44:44.630Z,154.28
2023-05-01T10:47:11.070Z,148.39
2023-05-01T10:49:37.604Z,136.90
2023-05-01T10:52:04.067Z,137.01
2023-05-01T10:54:30.560Z,136.60
2023-05-01T10:56:57.037Z,133.01
2023-05-01T10:59:23.511Z,129.21
2023-05-01T11:01:51.792Z,128.62
2023-05-01T11:04:18.603Z,128.88
2023-05-01T11:06:45.269Z,124.60
2023-05-01T11:09:11.750Z,120.18
2023-05-01T11:11:38.291Z,121.21
2023-05-01T11:14:04.757Z,120.81
2023-05-01T11:16:31.279Z,120.46
2023-05-01T11:18:57.833Z,149.59
2023-05-01T11:21:24.363Z,180.74
2023-05-01T11:23:50.836Z,188.10
2023-05-01T11:26:17.354Z,176.73
2023-05-01T11:28:43.882Z,162.00
2023-05-01T11:31:10.586Z,152.96
2023-05-01T11:33:41.074Z,150.36
2023-05-01T11:36:07.615Z,143.14
2023-05-01T11:38:34.115Z,138.79
2023-05-01T11:41:00.643Z,135.18
2023-05-01T11:43:27.252Z,133.92
2023-05-01T11:45:53.762Z,132.93
2023-05-01T11:48:20.270Z,125.22
2023-05-01T11:50:46.776Z,130.35
2023-05-01T11:53:13.205Z,129.15
2023-05-01T11:55:39.700Z,129.01
2023-05-01T11:58:06.258Z,123.16
2023-05-01T12:00:32.832Z,122.83
2023-05-01T12:02:59.342Z,117.51
2023-05-01T12:05:25.941Z,115.28
2023-05-01T12:07:52.464Z,116.88
2023-05-01T12:10:18.962Z,110.72
2023-05-01T12:12:45.485Z,106.36
2023-05-01T12:15:11.957Z,102.41
2023-05-01T12:17:38.604Z,104.07
2023-05-01T12:20:05.098Z,102.84
2023-05-01T12:22:31.628Z,98.51
2023-05-01T12:24:58.305Z,98.01
2023-05-01T12:27:24.995Z,96.67
2023-05-01T12:29:51.423Z,91.99
2023-05-01T12:32:17.886Z,93.99
2023-05-01T12:34:44.350Z,90.37
2023-05-01T12:37:10.822Z,86.82
2023-05-01T12:39:37.314Z,87.64
2023-05-01T12:42:03.838Z,85.61
2023-05-01T12:44:30.343Z,89.47
2023-05-01T12:46:56.906Z,85.54
2023-05-01T12:49:23.553Z,85.07
2023-05-01T12:51:50.086Z,81.50
2023-05-01T12:54:16.616Z,81.24
2023-05-01T12:56:43.076Z,79.52
2023-05-01T12:59:09.573Z,79.02
2023-05-01T13:01:36.115Z,80.76
2023-05-01T13:04:02.726Z,79.20
2023-05-01T13:06:29.334Z,75.59
2023-05-01T13:08:55.857Z,74.36
2023-05-01T13:11:22.361Z,76.89
2023-05-01T13:13:48.897Z,76.86
2023-05-01T13:16:15.437Z,74.84
2023-05-01T13:18:41.910Z,73.15
2023-05-01T13:21:08.391Z,70.38
2023-05-01T13:23:34.855Z,77.46
2023-05-01T13:26:01.309Z,73.31
2023-05-01T13:28:27.775Z,70.78
2023-05-01T13:30:54.305Z,74.37
2023-05-01T13:33:20.794Z,70.42
2023-05-01T13:35:47.342Z,72.07
2023-05-01T13:38:13.838Z,69.19
2023-05-01T13:40:40.364Z,70.65
2023-05-01T13:43:06.918Z,63.47
2023-05-01T13:45:33.467Z,65.65
2023-05-01T13:47:59.999Z,64.15
2023-05-01T13:50:26.539Z,64.23
2023-05-01T13:52:53.001Z,65.75
2023-05-01T13:55:19.432Z,65.11
2023-05-01T13:57:45.916Z,62.87
2023-05-01T14:00:12.498Z,64.58
2023-05-01T14:02:39.070Z,62.96
2023-05-01T14:05:05.825Z,61.26
2023-05-01T14:07:32.560Z,61.95
2023-05-01T14:09:59.039Z,60.12
2023-05-01T14:12:25.500Z,59.40
2023-05-01T14:14:52.044Z,58.00
2023-05-01T14:17:18.749Z,58.60
2023-05-01T14:19:45.302Z,58.61
2023-05-01T14:22:11.842Z,55.73
2023-05-01T14:24:38.384Z,57.82
2023-05-01T14:27:04.986Z,52.97
2023-05-01T14:29:31.794Z,53.40
2023-05-01T14:31:58.266Z,56.25
2023-05-01T14:34:25.527Z,55.95
2023-05-01T14:36:53.777Z,56.54
2023-05-01T14:39:20.853Z,51.25
2023-05-01T14:41:47.567Z,50.77
2023-05-01T14:44:14.482Z,52.73
2023-05-01T14:46:41.705Z,48.91
2023-05-01T14:49:09.734Z,48.33
2023-05-01T14:51:36.774Z,48.91
2023-05-01T14:54:03.771Z,50.06
2023-05-01T14:56:30.375Z,50.30
2023-05-01T14:58:57.020Z,46.69
2023-05-01T15:01:23.741Z,46.24
2023-05-01T15:03:51.231Z,45.92
2023-05-01T15:06:18.104Z,43.79
2023-05-01T15:08:44.863Z,44.88
2023-05-01T15:11:11.794Z,46.54
2023-05-01T15:13:38.547Z,43.62
2023-05-01T15:16:05.600Z,42.87
2023-05-01T15:18:32.345Z,50.85
2023-05-01T15:20:58.938Z,47.10
2023-05-01T15:23:25.430Z,45.64
2023-05-01T15:25:52.163Z,46.54
2023-05-01T15:28:18.626Z,46.87
2023-05-01T15:30:45.125Z,45.51
2023-05-01T15:33:11.635Z,46.51
2023-05-01T15:35:38.073Z,48.91
2023-05-01T15:38:04.512Z,45.54
2023-05-01T15:40:30.961Z,46.54
2023-05-01T15:42:57.503Z,46.22
2023-05-01T15:45:24.034Z,48.44
2023-05-01T15:47:50.638Z,46.39
2023-05-01T15:50:17.131Z,47.06
2023-05-01T15:52:43.641Z,42.66
2023-05-01T15:55:10.180Z,44.79
2023-05-01T15:57:37.074Z,48.16
2023-05-01T16:00:03.716Z,46.77
2023-05-01T16:02:30.360Z,48.71
2023-05-01T16:04:56.951Z,46.48
2023-05-01T16:07:23.453Z,44.63
2023-05-01T16:09:49.948Z,45.45
2023-05-01T16:12:16.433Z,42.70
2023-05-01T16:14:42.870Z,45.21
2023-05-01T16:17:09.394Z,45.61
2023-05-01T16:19:35.859Z,45.49
2023-05-01T16:22:02.349Z,44.06
2023-05-01T16:24:29.049Z,46.28
2023-05-01T16:26:55.525Z,43.70
2023-05-01T16:29:21.978Z,43.89
2023-05-01T16:31:48.545Z,43.14
2023-05-01T16:34:15.127Z,46.44
2023-05-01T16:36:41.680Z,44.06
2023-05-01T16:39:10.212Z,45.67
2023-05-01T16:41:37.255Z,45.28
2023-05-01T16:44:03.690Z,72.78
2023-05-01T16:46:30.252Z,75.99
2023-05-01T16:48:56.750Z,70.16
2023-05-01T16:51:23.212Z,68.67
2023-05-01T16:53:49.675Z,62.96
2023-05-01T16:56:16.163Z,61.61
2023-05-01T16:58:42.638Z,58.88
2023-05-01T17:01:09.104Z,55.06
2023-05-01T17:03:35.577Z,55.59
2023-05-01T17:06:02.096Z,52.82
2023-05-01T17:08:28.584Z,51.42
2023-05-01T17:10:55.093Z,50.50
2023-05-01T17:13:21.593Z,44.21
2023-05-01T17:15:48.085Z,44.49
2023-05-01T17:18:14.523Z,41.75
2023-05-01T17:20:40.971Z,44.27
2023-05-01T17:23:07.339Z,42.85
2023-05-01T17:25:33.915Z,40.81
2023-05-01T17:28:00.342Z,42.84
2023-05-01T17:30:26.996Z,41.59
2023-05-01T17:32:53.637Z,38.84
2023-05-01T17:35:20.152Z,40.30
2023-05-01T17:37:46.764Z,38.58
2023-05-01T17:40:14.344Z,36.49
2023-05-01T17:42:40.808Z,39.89
2023-05-01T17:45:07.246Z,38.21
2023-05-01T17:47:33.779Z,38.08
2023-05-01T17:50:00.449Z,35.17
2023-05-01T17:52:27.285Z,33.57
2023-05-01T17:54:53.770Z,34.12
2023-05-01T17:57:20.400Z,31.19
2023-05-01T17:59:46.882Z,31.42
2023-05-01T18:02:13.552Z,31.85
2023-05-01T18:04:40.177Z,32.23
2023-05-01T18:07:06.694Z,30.40
2023-05-01T18:09:33.197Z,32.52
2023-05-01T18:11:59.726Z,31.94
2023-05-01T18:14:26.160Z,29.92
2023-05-01T18:16:52.843Z,29.66
2023-05-01T18:19:19.400Z,30.24
2023-05-01T18:21:45.949Z,29.80
2023-05-01T18:24:12.462Z,31.31
2023-05-01T18:26:38.927Z,30.90
2023-05-01T18:29:05.495Z,28.32
2023-05-01T18:31:32.124Z,29.41
2023-05-01T18:33:58.572Z,26.97
2023-05-01T18:36:25.059Z,30.10
2023-05-01T18:38:51.662Z,27.01
2023-05-01T18:41:20.941Z,26.25
2023-05-01T18:43:47.379Z,26.57
2023-05-01T18:46:13.896Z,27.24
2023-05-01T18:48:40.372Z,27.47
2023-05-01T18:51:09.002Z,29.09
2023-05-01T18:53:35.914Z,27.29
2023-05-01T18:56:02.432Z,25.92
2023-05-01T18:58:28.828Z,24.89
2023-05-01T19:00:55.265Z,26.70
2023-05-01T19:03:21.821Z,25.44
2023-05-01T19:05:49.011Z,26.21
2023-05-01T19:08:15.682Z,25.43
2023-05-01T19:10:42.131Z,24.77
2023-05-01T19:13:08.621Z,25.51
2023-05-01T19:15:35.134Z,24.22
2023-05-01T19:18:01.655Z,26.36
2023-05-01T19:20:28.116Z,25.02
2023-05-01T19:22:54.606Z,25.63
2023-05-01T19:25:21.125Z,24.65
2023-05-01T19:27:49.014Z,25.15
2023-05-01T19:30:15.559Z,24.14
2023-05-01T19:32:42.079Z,25.78
2023-05-01T19:35:08.611Z,23.65
2023-05-01T19:37:35.142Z,23.58
2023-05-01T19:40:01.840Z,25.20
2023-05-01T19:42:28.571Z,25.68
2023-05-01T19:44:55.631Z,25.13
2023-05-01T19:47:22.446Z,23.91
2023-05-01T19:49:49.353Z,24.59
2023-05-01T19:52:15.798Z,23.72
2023-05-01T19:54:42.223Z,23.88
2023-05-01T19:57:08.694Z,24.55
2023-05-01T19:59:35.148Z,22.57
2023-05-01T20:02:01.777Z,22.36
2023-05-01T20:04:28.401Z,25.00
2023-05-01T20:06:54.971Z,22.48
2023-05-01T20:09:21.671Z,24.02
2023-05-01T20:11:48.136Z,22.72
2023-05-01T20:14:14.635Z,22.03
2023-05-01T20:16:41.761Z,23.60
2023-05-01T20:19:08.208Z,23.14
2023-05-01T20:21:34.643Z,22.99
2023-05-01T20:24:01.159Z,22.26
2023-05-01T20:26:27.699Z,22.26
2023-05-01T20:28:54.265Z,21.77
2023-05-01T20:31:20.756Z,21.71
2023-05-01T20:33:47.365Z,21.58
2023-05-01T20:36:13.838Z,22.24
2023-05-01T20:38:40.275Z,21.88
2023-05-01T20:41:06.819Z,22.21
2023-05-01T20:43:33.317Z,22.25
2023-05-01T20:45:59.789Z,21.45
2023-05-01T20:48:26.338Z,21.36
2023-05-01T20:50:52.882Z,21.30
2023-05-01T20:53:19.554Z,21.48
2023-05-01T20:55:46.055Z,22.45
2023-05-01T20:58:12.549Z,21.07
2023-05-01T21:00:39.082Z,20.70
2023-05-01T21:03:05.771Z,20.96
2023-05-01T21:05:32.370Z,22.74
2023-05-01T21:07:58.891Z,20.56
2023-05-01T21:10:26.219Z,21.85
2023-05-01T21:12:52.665Z,20.90
2023-05-01T21:15:19.206Z,21.17
2023-05-01T21:17:45.738Z,20.26
2023-05-01T21:20:13.370Z,20.68
2023-05-01T21:22:39.887Z,22.12
2023-05-01T21:25:06.382Z,19.48
2023-05-01T21:27:32.926Z,20.46
2023-05-01T21:29:59.580Z,20.36
2023-05-01T21:32:29.403Z,20.72
2023-05-01T21:34:56.024Z,19.86
2023-05-01T21:37:22.652Z,20.64
2023-05-01T21:39:49.241Z,20.12
2023-05-01T21:42:15.728Z,19.15
2023-05-01T21:44:42.396Z,20.67
2023-05-01T21:47:08.960Z,18.84
2023-05-01T21:49:35.595Z,19.91
2023-05-01T21:52:02.101Z,19.40
2023-05-01T21:54:28.519Z,20.29
2023-05-01T21:56:57.843Z,18.74
2023-05-01T21:59:24.403Z,21.25
2023-05-01T22:01:50.889Z,21.36
2023-05-01T22:04:17.532Z,20.82
2023-05-01T22:06:44.108Z,19.19
2023-05-01T22:09:10.733Z,18.39
2023-05-01T22:11:37.227Z,20.23
2023-05-01T22:14:03.767Z,19.17
2023-05-01T22:16:30.340Z,19.60
2023-05-01T22:18:56.886Z,18.86
2023-05-01T22:21:23.359Z,18.47
2023-05-01T22:23:49.873Z,20.29
2023-05-01T22:26:16.387Z,18.57
2023-05-01T22:28:45.771Z,18.99
2023-05-01T22:31:12.358Z,18.44
2023-05-01T22:33:38.855Z,19.67
2023-05-01T22:36:07.445Z,18.65
2023-05-01T22:38:34.331Z,18.51
2023-05-01T22:41:00.864Z,18.90
2023-05-01T22:43:27.395Z,18.44
2023-05-01T22:45:53.983Z,18.60
2023-05-01T22:48:20.610Z,18.14
2023-05-01T22:50:47.112Z,18.94
2023-05-01T22:53:13.632Z,19.96
2023-05-01T22:55:40.133Z,18.66
2023-05-01T22:58:06.643Z,17.81
2023-05-01T23:00:33.110Z,18.61
2023-05-01T23:02:59.779Z,18.62
2023-05-01T23:05:26.300Z,18.94
2023-05-01T23:07:52.856Z,17.97
2023-05-01T23:10:19.410Z,17.45
2023-05-01T23:12:45.968Z,18.56
2023-05-01T23:15:12.460Z,17.60
2023-05-01T23:17:38.963Z,17.11
2023-05-01T23:20:05.503Z,16.92
2023-05-01T23:22:31.948Z,17.56
2023-05-01T23:24:58.464Z,17.11
2023-05-01T23:27:25.051Z,17.49
2023-05-01T23:29:51.625Z,17.94
2023-05-01T23:32:18.190Z,17.84
2023-05-01T23:34:44.732Z,17.33
2023-05-01T23:37:11.212Z,17.72
2023-05-01T23:39:37.631Z,18.54
2023-05-01T23:42:04.141Z,17.30
2023-05-01T23:44:30.691Z,18.08
2023-05-01T23:46:57.236Z,18.52
2023-05-01T23:49:23.819Z,18.68
2023-05-01T23:51:50.341Z,17.51
2023-05-01T23:54:16.913Z,17.41
2023-05-01T23:56:43.398Z,16.20
2023-05-01T23:59:09.901Z,17.46
